METAR Data
IDs: Format: Raw Decoded Include TAF

Data at: 2119 UTC 08 Aug 2020

KCHD 082047Z 23005KT 10SM SCT160 42/03 A2986
KCHD 081947Z 18004KT 10SM SCT160 40/02 A2989
KCHD 081847Z VRB04KT 10SM SKC 40/05 A2990
KCHD 081747Z 18005KT 10SM CLR 38/05 A2992
KCHD 081647Z 09004KT 10SM CLR 36/10 A2993
KCHD 081547Z 00000KT 10SM CLR 35/12 A2994
KCHD 081447Z 09004KT 10SM CLR 32/13 A2994
KCHD 081347Z 00000KT 10SM CLR 29/12 A2992
KCHD 081247Z 08004KT 10SM CLR 28/12 A2990
KCHD 080347Z VRB05KT 10SM SCT140 35/06 A2981 RMK LAST
KCHD 080247Z 30005KT 10SM SCT140 39/06 A2981
KCHD 080047Z 30005KT 10SM SCT140 41/07 A2979
KCHD 072347Z 30008KT 10SM SCT140 42/07 A2980
KCHD 072247Z 25008G15KT 10SM FEW120 42/07 A2981
KCHD 072147Z 25007KT 10SM FEW120 40/07 A2984
KCHD 072047Z VRB05KT 10SM FEW120 40/06 A2986
KCHD 071947Z VRB04KT 10SM FEW120 39/05 A2988
KCHD 071847Z 16005KT 10SM CLR 38/05 A2989
KCHD 071747Z 02005KT 10SM CLR 37/06 A2991
KCHD 071647Z 36005KT 10SM CLR 35/08 A2992
KCHD 071547Z 00000KT 10SM CLR 34/08 A2991
KCHD 071447Z 00000KT 10SM CLR 32/11 A2989
KCHD 071347Z 00000KT 10SM FEW200 28/11 A2987
KCHD 071247Z 00000KT 10SM FEW200 27/07 A2985